sensor_id;sensor_type;location;lat;lon;timestamp;P1;durP1;ratioP1;P2;durP2;ratioP2
12042;SDS011;6082;49.306;12.862;2022-09-12T00:03:34;5.57;;;2.70;;
12042;SDS011;6082;49.306;12.862;2022-09-12T00:06:06;3.57;;;2.37;;
12042;SDS011;6082;49.306;12.862;2022-09-12T00:08:37;3.70;;;2.40;;
12042;SDS011;6082;49.306;12.862;2022-09-12T00:11:04;3.20;;;2.17;;
12042;SDS011;6082;49.306;12.862;2022-09-12T00:13:31;3.27;;;2.07;;
12042;SDS011;6082;49.306;12.862;2022-09-12T00:15:57;2.87;;;2.17;;
12042;SDS011;6082;49.306;12.862;2022-09-12T00:18:22;3.13;;;2.50;;
12042;SDS011;6082;49.306;12.862;2022-09-12T00:20:48;4.23;;;2.77;;
12042;SDS011;6082;49.306;12.862;2022-09-12T00:23:14;3.97;;;3.10;;
12042;SDS011;6082;49.306;12.862;2022-09-12T00:25:43;4.50;;;2.93;;
12042;SDS011;6082;49.306;12.862;2022-09-12T00:28:10;2.97;;;2.67;;
12042;SDS011;6082;49.306;12.862;2022-09-12T00:30:44;5.10;;;3.33;;
12042;SDS011;6082;49.306;12.862;2022-09-12T00:33:12;4.57;;;2.53;;
12042;SDS011;6082;49.306;12.862;2022-09-12T00:35:43;3.50;;;2.60;;
12042;SDS011;6082;49.306;12.862;2022-09-12T00:38:11;4.93;;;3.07;;
12042;SDS011;6082;49.306;12.862;2022-09-12T00:40:38;4.03;;;2.40;;
12042;SDS011;6082;49.306;12.862;2022-09-12T00:43:04;4.47;;;2.47;;
12042;SDS011;6082;49.306;12.862;2022-09-12T00:45:34;3.00;;;2.50;;
12042;SDS011;6082;49.306;12.862;2022-09-12T00:48:00;2.97;;;2.20;;
12042;SDS011;6082;49.306;12.862;2022-09-12T00:50:28;3.67;;;2.67;;
12042;SDS011;6082;49.306;12.862;2022-09-12T00:52:57;3.43;;;2.53;;
12042;SDS011;6082;49.306;12.862;2022-09-12T00:55:29;3.93;;;2.57;;
12042;SDS011;6082;49.306;12.862;2022-09-12T01:00:28;4.30;;;2.37;;
12042;SDS011;6082;49.306;12.862;2022-09-12T01:02:57;2.67;;;2.40;;
12042;SDS011;6082;49.306;12.862;2022-09-12T01:05:26;3.03;;;2.30;;
12042;SDS011;6082;49.306;12.862;2022-09-12T01:07:53;2.93;;;2.60;;
12042;SDS011;6082;49.306;12.862;2022-09-12T01:10:20;3.20;;;2.50;;
12042;SDS011;6082;49.306;12.862;2022-09-12T01:12:48;4.97;;;2.30;;
12042;SDS011;6082;49.306;12.862;2022-09-12T01:15:14;3.50;;;2.63;;
12042;SDS011;6082;49.306;12.862;2022-09-12T01:18:15;3.77;;;2.63;;
12042;SDS011;6082;49.306;12.862;2022-09-12T01:29:33;3.70;;;2.40;;
12042;SDS011;6082;49.306;12.862;2022-09-12T01:40:49;3.43;;;2.20;;
12042;SDS011;6082;49.306;12.862;2022-09-12T01:46:24;3.00;;;2.63;;
12042;SDS011;6082;49.306;12.862;2022-09-12T01:51:35;5.13;;;3.80;;
12042;SDS011;6082;49.306;12.862;2022-09-12T01:54:09;3.97;;;2.90;;
12042;SDS011;6082;49.306;12.862;2022-09-12T01:56:40;4.80;;;2.87;;
12042;SDS011;6082;49.306;12.862;2022-09-12T01:59:20;4.93;;;3.60;;
12042;SDS011;6082;49.306;12.862;2022-09-12T02:01:51;4.07;;;3.17;;
12042;SDS011;6082;49.306;12.862;2022-09-12T02:04:29;3.73;;;3.10;;
12042;SDS011;6082;49.306;12.862;2022-09-12T02:09:53;4.17;;;3.33;;
12042;SDS011;6082;49.306;12.862;2022-09-12T02:12:24;4.20;;;2.80;;
12042;SDS011;6082;49.306;12.862;2022-09-12T02:15:00;2.90;;;2.50;;
12042;SDS011;6082;49.306;12.862;2022-09-12T02:17:29;4.37;;;3.20;;
12042;SDS011;6082;49.306;12.862;2022-09-12T02:20:04;5.90;;;3.03;;
12042;SDS011;6082;49.306;12.862;2022-09-12T02:22:51;4.27;;;3.03;;
12042;SDS011;6082;49.306;12.862;2022-09-12T02:25:19;4.23;;;2.80;;
12042;SDS011;6082;49.306;12.862;2022-09-12T02:28:03;4.27;;;2.93;;
12042;SDS011;6082;49.306;12.862;2022-09-12T02:30:36;4.53;;;2.93;;
12042;SDS011;6082;49.306;12.862;2022-09-12T02:33:23;3.80;;;2.73;;
12042;SDS011;6082;49.306;12.862;2022-09-12T02:38:56;3.93;;;2.57;;
12042;SDS011;6082;49.306;12.862;2022-09-12T02:41:22;4.17;;;3.23;;
12042;SDS011;6082;49.306;12.862;2022-09-12T02:43:49;2.87;;;2.43;;
12042;SDS011;6082;49.306;12.862;2022-09-12T02:46:21;4.03;;;2.63;;
12042;SDS011;6082;49.306;12.862;2022-09-12T02:48:51;3.87;;;2.90;;
12042;SDS011;6082;49.306;12.862;2022-09-12T02:51:18;4.07;;;2.70;;
12042;SDS011;6082;49.306;12.862;2022-09-12T02:53:45;4.83;;;2.90;;
12042;SDS011;6082;49.306;12.862;2022-09-12T02:56:13;3.07;;;2.50;;
12042;SDS011;6082;49.306;12.862;2022-09-12T02:58:44;3.33;;;2.10;;
12042;SDS011;6082;49.306;12.862;2022-09-12T03:09:12;2.90;;;2.30;;
12042;SDS011;6082;49.306;12.862;2022-09-12T03:12:12;2.83;;;2.27;;
12042;SDS011;6082;49.306;12.862;2022-09-12T03:17:46;4.10;;;2.70;;
12042;SDS011;6082;49.306;12.862;2022-09-12T03:20:48;3.90;;;2.83;;
12042;SDS011;6082;49.306;12.862;2022-09-12T03:25:42;4.30;;;2.70;;
12042;SDS011;6082;49.306;12.862;2022-09-12T03:28:13;3.97;;;2.50;;
12042;SDS011;6082;49.306;12.862;2022-09-12T03:30:42;4.87;;;3.03;;
12042;SDS011;6082;49.306;12.862;2022-09-12T03:33:10;5.00;;;2.80;;
12042;SDS011;6082;49.306;12.862;2022-09-12T03:35:37;3.33;;;2.50;;
12042;SDS011;6082;49.306;12.862;2022-09-12T03:38:03;3.87;;;2.80;;
12042;SDS011;6082;49.306;12.862;2022-09-12T03:40:31;3.13;;;2.40;;
12042;SDS011;6082;49.306;12.862;2022-09-12T03:43:01;5.40;;;3.27;;
12042;SDS011;6082;49.306;12.862;2022-09-12T03:45:27;6.10;;;4.27;;
12042;SDS011;6082;49.306;12.862;2022-09-12T03:47:52;4.83;;;3.17;;
12042;SDS011;6082;49.306;12.862;2022-09-12T03:50:18;5.47;;;3.03;;
12042;SDS011;6082;49.306;12.862;2022-09-12T03:52:44;5.67;;;3.17;;
12042;SDS011;6082;49.306;12.862;2022-09-12T03:55:09;4.50;;;3.13;;
12042;SDS011;6082;49.306;12.862;2022-09-12T03:57:36;4.20;;;2.97;;
12042;SDS011;6082;49.306;12.862;2022-09-12T04:00:02;5.23;;;3.50;;
12042;SDS011;6082;49.306;12.862;2022-09-12T04:02:30;4.77;;;3.60;;
12042;SDS011;6082;49.306;12.862;2022-09-12T04:04:55;3.80;;;2.73;;
12042;SDS011;6082;49.306;12.862;2022-09-12T04:07:21;4.83;;;3.27;;
12042;SDS011;6082;49.306;12.862;2022-09-12T04:09:47;4.40;;;3.10;;
12042;SDS011;6082;49.306;12.862;2022-09-12T04:12:12;3.27;;;2.33;;
12042;SDS011;6082;49.306;12.862;2022-09-12T04:14:38;4.67;;;3.43;;
12042;SDS011;6082;49.306;12.862;2022-09-12T04:17:04;5.47;;;3.93;;
12042;SDS011;6082;49.306;12.862;2022-09-12T04:19:30;5.43;;;3.17;;
12042;SDS011;6082;49.306;12.862;2022-09-12T04:21:55;4.30;;;3.50;;
12042;SDS011;6082;49.306;12.862;2022-09-12T04:24:21;4.33;;;3.30;;
12042;SDS011;6082;49.306;12.862;2022-09-12T04:26:47;5.93;;;3.30;;
12042;SDS011;6082;49.306;12.862;2022-09-12T04:29:12;6.37;;;3.83;;
12042;SDS011;6082;49.306;12.862;2022-09-12T04:31:41;5.27;;;3.47;;
12042;SDS011;6082;49.306;12.862;2022-09-12T04:34:08;5.43;;;3.63;;
12042;SDS011;6082;49.306;12.862;2022-09-12T04:36:34;6.20;;;3.90;;
12042;SDS011;6082;49.306;12.862;2022-09-12T04:39:00;6.70;;;4.57;;
12042;SDS011;6082;49.306;12.862;2022-09-12T04:41:27;5.00;;;3.63;;
12042;SDS011;6082;49.306;12.862;2022-09-12T04:43:59;6.13;;;3.80;;
12042;SDS011;6082;49.306;12.862;2022-09-12T04:46:27;5.80;;;3.83;;
12042;SDS011;6082;49.306;12.862;2022-09-12T04:48:54;7.03;;;4.07;;
12042;SDS011;6082;49.306;12.862;2022-09-12T04:51:27;6.40;;;4.23;;
12042;SDS011;6082;49.306;12.862;2022-09-12T04:53:56;6.27;;;3.93;;
12042;SDS011;6082;49.306;12.862;2022-09-12T04:56:27;4.97;;;3.73;;
12042;SDS011;6082;49.306;12.862;2022-09-12T04:58:58;5.13;;;3.43;;
12042;SDS011;6082;49.306;12.862;2022-09-12T05:01:24;6.27;;;3.37;;
12042;SDS011;6082;49.306;12.862;2022-09-12T05:03:52;5.40;;;3.43;;
12042;SDS011;6082;49.306;12.862;2022-09-12T05:06:28;5.90;;;3.80;;
12042;SDS011;6082;49.306;12.862;2022-09-12T05:08:55;5.23;;;3.50;;
12042;SDS011;6082;49.306;12.862;2022-09-12T05:11:23;4.17;;;3.03;;
12042;SDS011;6082;49.306;12.862;2022-09-12T05:13:51;5.30;;;3.53;;
12042;SDS011;6082;49.306;12.862;2022-09-12T05:16:18;7.27;;;4.27;;
12042;SDS011;6082;49.306;12.862;2022-09-12T05:18:45;6.63;;;3.40;;
12042;SDS011;6082;49.306;12.862;2022-09-12T05:21:13;7.73;;;3.57;;
12042;SDS011;6082;49.306;12.862;2022-09-12T05:23:40;6.20;;;3.70;;
12042;SDS011;6082;49.306;12.862;2022-09-12T05:26:06;5.10;;;3.07;;
12042;SDS011;6082;49.306;12.862;2022-09-12T05:28:35;5.53;;;3.60;;
12042;SDS011;6082;49.306;12.862;2022-09-12T05:33:33;6.43;;;3.57;;
12042;SDS011;6082;49.306;12.862;2022-09-12T05:36:01;5.30;;;3.57;;
12042;SDS011;6082;49.306;12.862;2022-09-12T05:38:27;5.63;;;3.67;;
12042;SDS011;6082;49.306;12.862;2022-09-12T05:41:03;5.33;;;3.53;;
12042;SDS011;6082;49.306;12.862;2022-09-12T05:43:30;6.53;;;4.30;;
12042;SDS011;6082;49.306;12.862;2022-09-12T05:46:04;6.50;;;3.67;;
12042;SDS011;6082;49.306;12.862;2022-09-12T05:48:34;4.80;;;3.13;;
12042;SDS011;6082;49.306;12.862;2022-09-12T05:51:02;4.77;;;3.33;;
12042;SDS011;6082;49.306;12.862;2022-09-12T05:53:31;6.53;;;3.60;;
12042;SDS011;6082;49.306;12.862;2022-09-12T05:56:00;5.63;;;3.43;;
12042;SDS011;6082;49.306;12.862;2022-09-12T05:58:34;5.70;;;3.73;;
12042;SDS011;6082;49.306;12.862;2022-09-12T06:01:11;9.23;;;3.57;;
12042;SDS011;6082;49.306;12.862;2022-09-12T06:03:41;5.30;;;3.80;;
12042;SDS011;6082;49.306;12.862;2022-09-12T06:06:09;6.60;;;3.97;;
12042;SDS011;6082;49.306;12.862;2022-09-12T06:08:38;5.57;;;3.57;;
12042;SDS011;6082;49.306;12.862;2022-09-12T06:11:05;5.87;;;4.27;;
12042;SDS011;6082;49.306;12.862;2022-09-12T06:13:32;5.53;;;3.70;;
12042;SDS011;6082;49.306;12.862;2022-09-12T06:16:06;6.37;;;4.33;;
12042;SDS011;6082;49.306;12.862;2022-09-12T06:18:48;4.93;;;3.40;;
12042;SDS011;6082;49.306;12.862;2022-09-12T06:21:15;4.93;;;3.73;;
12042;SDS011;6082;49.306;12.862;2022-09-12T06:23:41;4.67;;;3.40;;
12042;SDS011;6082;49.306;12.862;2022-09-12T06:26:10;5.23;;;3.30;;
12042;SDS011;6082;49.306;12.862;2022-09-12T06:28:37;4.17;;;3.10;;
12042;SDS011;6082;49.306;12.862;2022-09-12T06:31:05;5.80;;;3.53;;
12042;SDS011;6082;49.306;12.862;2022-09-12T06:33:34;6.63;;;4.27;;
12042;SDS011;6082;49.306;12.862;2022-09-12T06:38:31;6.17;;;4.07;;
12042;SDS011;6082;49.306;12.862;2022-09-12T06:40:58;5.47;;;3.83;;
12042;SDS011;6082;49.306;12.862;2022-09-12T06:43:24;5.97;;;4.37;;
12042;SDS011;6082;49.306;12.862;2022-09-12T06:45:51;5.43;;;4.03;;
12042;SDS011;6082;49.306;12.862;2022-09-12T06:48:17;6.67;;;4.33;;
12042;SDS011;6082;49.306;12.862;2022-09-12T06:50:42;5.63;;;3.83;;
12042;SDS011;6082;49.306;12.862;2022-09-12T06:53:18;6.43;;;3.87;;
12042;SDS011;6082;49.306;12.862;2022-09-12T06:55:44;7.63;;;4.60;;
12042;SDS011;6082;49.306;12.862;2022-09-12T06:58:10;7.23;;;4.57;;
12042;SDS011;6082;49.306;12.862;2022-09-12T07:00:35;6.43;;;4.30;;
12042;SDS011;6082;49.306;12.862;2022-09-12T07:03:01;6.50;;;4.37;;
12042;SDS011;6082;49.306;12.862;2022-09-12T07:05:27;10.40;;;6.73;;
12042;SDS011;6082;49.306;12.862;2022-09-12T07:07:53;7.90;;;5.50;;
12042;SDS011;6082;49.306;12.862;2022-09-12T07:10:18;8.13;;;5.13;;
12042;SDS011;6082;49.306;12.862;2022-09-12T07:12:45;6.47;;;4.23;;
12042;SDS011;6082;49.306;12.862;2022-09-12T07:15:11;10.73;;;6.57;;
12042;SDS011;6082;49.306;12.862;2022-09-12T07:17:37;9.23;;;5.97;;
12042;SDS011;6082;49.306;12.862;2022-09-12T07:20:03;7.30;;;4.63;;
12042;SDS011;6082;49.306;12.862;2022-09-12T07:22:29;9.30;;;5.10;;
12042;SDS011;6082;49.306;12.862;2022-09-12T07:24:55;7.13;;;5.30;;
12042;SDS011;6082;49.306;12.862;2022-09-12T07:27:21;9.37;;;5.50;;
12042;SDS011;6082;49.306;12.862;2022-09-12T07:29:47;8.60;;;5.10;;
12042;SDS011;6082;49.306;12.862;2022-09-12T07:32:13;6.47;;;4.63;;
12042;SDS011;6082;49.306;12.862;2022-09-12T07:34:38;5.93;;;4.07;;
12042;SDS011;6082;49.306;12.862;2022-09-12T07:37:04;8.97;;;5.53;;
12042;SDS011;6082;49.306;12.862;2022-09-12T07:39:30;8.27;;;5.37;;
12042;SDS011;6082;49.306;12.862;2022-09-12T07:41:56;9.47;;;5.77;;
12042;SDS011;6082;49.306;12.862;2022-09-12T07:44:22;7.87;;;4.77;;
12042;SDS011;6082;49.306;12.862;2022-09-12T07:46:49;7.57;;;5.10;;
12042;SDS011;6082;49.306;12.862;2022-09-12T07:49:14;8.20;;;5.37;;
12042;SDS011;6082;49.306;12.862;2022-09-12T07:51:40;7.97;;;4.80;;
12042;SDS011;6082;49.306;12.862;2022-09-12T07:54:06;7.30;;;4.97;;
12042;SDS011;6082;49.306;12.862;2022-09-12T07:56:33;8.07;;;5.07;;
12042;SDS011;6082;49.306;12.862;2022-09-12T07:59:02;8.20;;;5.27;;
12042;SDS011;6082;49.306;12.862;2022-09-12T08:01:28;6.77;;;4.57;;
12042;SDS011;6082;49.306;12.862;2022-09-12T08:03:57;9.47;;;5.90;;
12042;SDS011;6082;49.306;12.862;2022-09-12T08:06:24;7.77;;;5.27;;
12042;SDS011;6082;49.306;12.862;2022-09-12T08:08:52;8.07;;;5.57;;
12042;SDS011;6082;49.306;12.862;2022-09-12T08:11:20;7.87;;;6.03;;
12042;SDS011;6082;49.306;12.862;2022-09-12T08:13:47;8.20;;;5.20;;
12042;SDS011;6082;49.306;12.862;2022-09-12T08:16:14;8.37;;;5.17;;
12042;SDS011;6082;49.306;12.862;2022-09-12T08:18:45;9.57;;;5.70;;
12042;SDS011;6082;49.306;12.862;2022-09-12T08:21:13;8.00;;;5.33;;
12042;SDS011;6082;49.306;12.862;2022-09-12T08:23:42;7.93;;;5.17;;
12042;SDS011;6082;49.306;12.862;2022-09-12T08:26:09;6.40;;;5.00;;
12042;SDS011;6082;49.306;12.862;2022-09-12T08:28:36;7.07;;;5.23;;
12042;SDS011;6082;49.306;12.862;2022-09-12T08:31:10;8.33;;;6.07;;
12042;SDS011;6082;49.306;12.862;2022-09-12T08:33:37;7.27;;;5.43;;
12042;SDS011;6082;49.306;12.862;2022-09-12T08:38:29;8.13;;;4.87;;
12042;SDS011;6082;49.306;12.862;2022-09-12T08:41:01;6.53;;;4.77;;
12042;SDS011;6082;49.306;12.862;2022-09-12T08:46:31;8.37;;;5.40;;
12042;SDS011;6082;49.306;12.862;2022-09-12T08:49:02;8.90;;;5.73;;
12042;SDS011;6082;49.306;12.862;2022-09-12T08:51:32;7.50;;;5.23;;
12042;SDS011;6082;49.306;12.862;2022-09-12T08:53:59;6.40;;;4.77;;
12042;SDS011;6082;49.306;12.862;2022-09-12T08:56:27;10.10;;;5.77;;
12042;SDS011;6082;49.306;12.862;2022-09-12T08:58:56;9.70;;;5.93;;
12042;SDS011;6082;49.306;12.862;2022-09-12T09:17:26;5.73;;;3.77;;
12042;SDS011;6082;49.306;12.862;2022-09-12T09:20:06;6.77;;;4.47;;
12042;SDS011;6082;49.306;12.862;2022-09-12T09:22:51;9.37;;;4.00;;
12042;SDS011;6082;49.306;12.862;2022-09-12T09:25:22;6.07;;;3.93;;
12042;SDS011;6082;49.306;12.862;2022-09-12T09:27:57;3.63;;;3.17;;
12042;SDS011;6082;49.306;12.862;2022-09-12T09:30:27;5.17;;;3.53;;
12042;SDS011;6082;49.306;12.862;2022-09-12T09:32:55;5.73;;;3.70;;
12042;SDS011;6082;49.306;12.862;2022-09-12T09:38:17;4.97;;;3.87;;
12042;SDS011;6082;49.306;12.862;2022-09-12T09:43:40;4.93;;;3.40;;
12042;SDS011;6082;49.306;12.862;2022-09-12T09:46:06;4.13;;;3.20;;
12042;SDS011;6082;49.306;12.862;2022-09-12T09:48:35;4.87;;;3.37;;
12042;SDS011;6082;49.306;12.862;2022-09-12T09:51:04;5.77;;;3.63;;
12042;SDS011;6082;49.306;12.862;2022-09-12T09:56:32;4.80;;;3.50;;
12042;SDS011;6082;49.306;12.862;2022-09-12T09:59:17;5.27;;;3.10;;
12042;SDS011;6082;49.306;12.862;2022-09-12T10:01:54;3.23;;;2.80;;
12042;SDS011;6082;49.306;12.862;2022-09-12T10:04:25;6.17;;;3.27;;
12042;SDS011;6082;49.306;12.862;2022-09-12T10:06:55;3.33;;;2.63;;
12042;SDS011;6082;49.306;12.862;2022-09-12T10:09:24;3.70;;;3.07;;
12042;SDS011;6082;49.306;12.862;2022-09-12T10:11:55;2.67;;;2.30;;
12042;SDS011;6082;49.306;12.862;2022-09-12T10:14:32;2.70;;;2.37;;
12042;SDS011;6082;49.306;12.862;2022-09-12T10:16:59;2.63;;;2.30;;
12042;SDS011;6082;49.306;12.862;2022-09-12T10:19:35;2.93;;;2.53;;
12042;SDS011;6082;49.306;12.862;2022-09-12T10:22:02;3.40;;;2.83;;
12042;SDS011;6082;49.306;12.862;2022-09-12T10:24:33;3.50;;;2.40;;
12042;SDS011;6082;49.306;12.862;2022-09-12T10:29:41;3.10;;;2.40;;
12042;SDS011;6082;49.306;12.862;2022-09-12T10:32:13;3.20;;;2.43;;
12042;SDS011;6082;49.306;12.862;2022-09-12T10:34:59;2.87;;;2.23;;
12042;SDS011;6082;49.306;12.862;2022-09-12T10:37:34;2.80;;;2.30;;
12042;SDS011;6082;49.306;12.862;2022-09-12T10:40:03;3.33;;;2.90;;
12042;SDS011;6082;49.306;12.862;2022-09-12T10:47:57;2.50;;;2.30;;
12042;SDS011;6082;49.306;12.862;2022-09-12T10:50:58;2.77;;;2.27;;
12042;SDS011;6082;49.306;12.862;2022-09-12T10:56:09;2.87;;;2.37;;
12042;SDS011;6082;49.306;12.862;2022-09-12T10:58:46;3.27;;;2.33;;
12042;SDS011;6082;49.306;12.862;2022-09-12T11:01:34;5.03;;;2.37;;
12042;SDS011;6082;49.306;12.862;2022-09-12T11:04:18;3.17;;;2.30;;
12042;SDS011;6082;49.306;12.862;2022-09-12T11:06:55;2.40;;;2.17;;
12042;SDS011;6082;49.306;12.862;2022-09-12T11:12:55;3.30;;;2.60;;
12042;SDS011;6082;49.306;12.862;2022-09-12T11:16:04;4.07;;;2.50;;
12042;SDS011;6082;49.306;12.862;2022-09-12T11:30:13;2.60;;;2.13;;
12042;SDS011;6082;49.306;12.862;2022-09-12T11:35:30;2.50;;;2.10;;
12042;SDS011;6082;49.306;12.862;2022-09-12T11:43:39;2.73;;;2.23;;
12042;SDS011;6082;49.306;12.862;2022-09-12T11:51:17;2.43;;;2.20;;
12042;SDS011;6082;49.306;12.862;2022-09-12T11:53:44;3.23;;;2.20;;
12042;SDS011;6082;49.306;12.862;2022-09-12T11:56:19;2.13;;;1.90;;
12042;SDS011;6082;49.306;12.862;2022-09-12T11:58:47;3.30;;;2.00;;
12042;SDS011;6082;49.306;12.862;2022-09-12T12:01:19;2.70;;;1.70;;
12042;SDS011;6082;49.306;12.862;2022-09-12T12:03:49;2.70;;;1.73;;
12042;SDS011;6082;49.306;12.862;2022-09-12T12:08:55;2.33;;;2.10;;
12042;SDS011;6082;49.306;12.862;2022-09-12T12:11:30;2.80;;;2.03;;
12042;SDS011;6082;49.306;12.862;2022-09-12T12:16:38;2.70;;;2.07;;
12042;SDS011;6082;49.306;12.862;2022-09-12T12:19:29;3.90;;;2.20;;
12042;SDS011;6082;49.306;12.862;2022-09-12T12:21:51;2.67;;;2.03;;
12042;SDS011;6082;49.306;12.862;2022-09-12T12:24:23;2.70;;;2.00;;
12042;SDS011;6082;49.306;12.862;2022-09-12T12:27:22;4.03;;;2.23;;
12042;SDS011;6082;49.306;12.862;2022-09-12T12:38:01;3.57;;;2.50;;
12042;SDS011;6082;49.306;12.862;2022-09-12T12:40:29;3.53;;;3.23;;
12042;SDS011;6082;49.306;12.862;2022-09-12T12:48:00;21.33;;;13.80;;
12042;SDS011;6082;49.306;12.862;2022-09-12T12:50:39;33.97;;;21.33;;
12042;SDS011;6082;49.306;12.862;2022-09-12T12:55:51;2.30;;;2.03;;
12042;SDS011;6082;49.306;12.862;2022-09-12T12:58:28;3.37;;;2.13;;
12042;SDS011;6082;49.306;12.862;2022-09-12T13:04:10;3.00;;;1.97;;
12042;SDS011;6082;49.306;12.862;2022-09-12T13:06:42;2.90;;;2.10;;
12042;SDS011;6082;49.306;12.862;2022-09-12T13:12:17;3.97;;;2.23;;
12042;SDS011;6082;49.306;12.862;2022-09-12T13:14:50;2.93;;;2.20;;
12042;SDS011;6082;49.306;12.862;2022-09-12T13:19:44;3.20;;;2.20;;
12042;SDS011;6082;49.306;12.862;2022-09-12T13:22:11;2.53;;;2.07;;
12042;SDS011;6082;49.306;12.862;2022-09-12T13:24:46;3.10;;;2.37;;
12042;SDS011;6082;49.306;12.862;2022-09-12T13:27:19;2.20;;;1.93;;
12042;SDS011;6082;49.306;12.862;2022-09-12T13:29:47;2.60;;;2.10;;
12042;SDS011;6082;49.306;12.862;2022-09-12T13:32:13;3.57;;;2.10;;
12042;SDS011;6082;49.306;12.862;2022-09-12T13:37:32;2.53;;;2.33;;
12042;SDS011;6082;49.306;12.862;2022-09-12T13:43:11;2.40;;;2.17;;
12042;SDS011;6082;49.306;12.862;2022-09-12T13:45:43;2.90;;;2.17;;
12042;SDS011;6082;49.306;12.862;2022-09-12T13:48:18;2.00;;;1.80;;
12042;SDS011;6082;49.306;12.862;2022-09-12T13:50:52;2.10;;;1.90;;
12042;SDS011;6082;49.306;12.862;2022-09-12T13:53:21;2.10;;;1.90;;
12042;SDS011;6082;49.306;12.862;2022-09-12T13:55:55;2.73;;;2.07;;
12042;SDS011;6082;49.306;12.862;2022-09-12T13:58:26;2.30;;;2.00;;
12042;SDS011;6082;49.306;12.862;2022-09-12T14:01:05;2.37;;;1.90;;
12042;SDS011;6082;49.306;12.862;2022-09-12T14:06:23;2.10;;;1.90;;
12042;SDS011;6082;49.306;12.862;2022-09-12T14:08:50;2.30;;;1.87;;
12042;SDS011;6082;49.306;12.862;2022-09-12T14:11:24;2.53;;;2.00;;
12042;SDS011;6082;49.306;12.862;2022-09-12T14:13:51;2.27;;;1.80;;
12042;SDS011;6082;49.306;12.862;2022-09-12T14:16:20;2.20;;;2.00;;
12042;SDS011;6082;49.306;12.862;2022-09-12T14:18:48;2.20;;;2.00;;
12042;SDS011;6082;49.306;12.862;2022-09-12T14:23:44;2.27;;;2.00;;
12042;SDS011;6082;49.306;12.862;2022-09-12T14:26:13;2.10;;;1.90;;
12042;SDS011;6082;49.306;12.862;2022-09-12T14:28:41;2.63;;;1.93;;
12042;SDS011;6082;49.306;12.862;2022-09-12T14:33:46;2.70;;;2.27;;
12042;SDS011;6082;49.306;12.862;2022-09-12T14:38:52;1.73;;;1.50;;
12042;SDS011;6082;49.306;12.862;2022-09-12T14:41:59;1.90;;;1.80;;
12042;SDS011;6082;49.306;12.862;2022-09-12T14:44:19;3.60;;;2.30;;
12042;SDS011;6082;49.306;12.862;2022-09-12T14:46:49;2.27;;;1.83;;
12042;SDS011;6082;49.306;12.862;2022-09-12T14:49:31;2.63;;;1.90;;
12042;SDS011;6082;49.306;12.862;2022-09-12T14:51:59;3.27;;;2.07;;
12042;SDS011;6082;49.306;12.862;2022-09-12T14:56:55;2.70;;;2.20;;
12042;SDS011;6082;49.306;12.862;2022-09-12T14:59:28;2.60;;;1.80;;
12042;SDS011;6082;49.306;12.862;2022-09-12T15:04:45;2.20;;;1.90;;
12042;SDS011;6082;49.306;12.862;2022-09-12T15:07:38;1.87;;;1.67;;
12042;SDS011;6082;49.306;12.862;2022-09-12T15:15:39;2.60;;;2.00;;
12042;SDS011;6082;49.306;12.862;2022-09-12T15:18:06;2.57;;;2.30;;
12042;SDS011;6082;49.306;12.862;2022-09-12T15:20:33;2.20;;;2.00;;
12042;SDS011;6082;49.306;12.862;2022-09-12T15:23:03;2.33;;;1.87;;
12042;SDS011;6082;49.306;12.862;2022-09-12T15:25:32;2.67;;;2.00;;
12042;SDS011;6082;49.306;12.862;2022-09-12T15:27:58;1.70;;;1.60;;
12042;SDS011;6082;49.306;12.862;2022-09-12T15:30:25;2.80;;;2.00;;
12042;SDS011;6082;49.306;12.862;2022-09-12T15:32:50;2.80;;;2.10;;
12042;SDS011;6082;49.306;12.862;2022-09-12T15:35:20;1.80;;;1.70;;
12042;SDS011;6082;49.306;12.862;2022-09-12T15:37:48;2.07;;;1.80;;
12042;SDS011;6082;49.306;12.862;2022-09-12T15:40:14;2.10;;;1.90;;
12042;SDS011;6082;49.306;12.862;2022-09-12T15:42:40;2.70;;;2.27;;
12042;SDS011;6082;49.306;12.862;2022-09-12T15:45:25;1.67;;;1.57;;
12042;SDS011;6082;49.306;12.862;2022-09-12T15:47:53;2.10;;;1.90;;
12042;SDS011;6082;49.306;12.862;2022-09-12T15:50:19;2.13;;;1.93;;
12042;SDS011;6082;49.306;12.862;2022-09-12T15:52:45;2.37;;;2.03;;
12042;SDS011;6082;49.306;12.862;2022-09-12T15:55:15;1.87;;;1.70;;
12042;SDS011;6082;49.306;12.862;2022-09-12T15:57:49;3.03;;;2.20;;
12042;SDS011;6082;49.306;12.862;2022-09-12T16:00:15;2.80;;;2.10;;
12042;SDS011;6082;49.306;12.862;2022-09-12T16:02:42;2.10;;;1.80;;
12042;SDS011;6082;49.306;12.862;2022-09-12T16:05:12;2.70;;;2.00;;
12042;SDS011;6082;49.306;12.862;2022-09-12T16:07:40;3.87;;;2.40;;
12042;SDS011;6082;49.306;12.862;2022-09-12T16:10:07;3.13;;;2.40;;
12042;SDS011;6082;49.306;12.862;2022-09-12T16:12:38;2.40;;;2.20;;
12042;SDS011;6082;49.306;12.862;2022-09-12T16:15:03;2.93;;;2.00;;
12042;SDS011;6082;49.306;12.862;2022-09-12T16:17:30;2.50;;;2.03;;
12042;SDS011;6082;49.306;12.862;2022-09-12T16:19:55;3.53;;;2.10;;
12042;SDS011;6082;49.306;12.862;2022-09-12T16:22:21;2.77;;;2.10;;
12042;SDS011;6082;49.306;12.862;2022-09-12T16:24:47;2.33;;;2.13;;
12042;SDS011;6082;49.306;12.862;2022-09-12T16:27:12;2.23;;;1.80;;
12042;SDS011;6082;49.306;12.862;2022-09-12T16:29:38;2.40;;;2.13;;
12042;SDS011;6082;49.306;12.862;2022-09-12T16:32:04;3.60;;;2.00;;
12042;SDS011;6082;49.306;12.862;2022-09-12T16:34:30;2.20;;;1.90;;
12042;SDS011;6082;49.306;12.862;2022-09-12T16:36:55;2.40;;;2.20;;
12042;SDS011;6082;49.306;12.862;2022-09-12T16:39:21;2.60;;;2.00;;
12042;SDS011;6082;49.306;12.862;2022-09-12T16:41:47;4.87;;;2.30;;
12042;SDS011;6082;49.306;12.862;2022-09-12T16:44:12;3.50;;;2.33;;
12042;SDS011;6082;49.306;12.862;2022-09-12T16:46:38;2.20;;;1.80;;
12042;SDS011;6082;49.306;12.862;2022-09-12T16:49:04;2.70;;;2.10;;
12042;SDS011;6082;49.306;12.862;2022-09-12T16:51:31;2.17;;;1.90;;
12042;SDS011;6082;49.306;12.862;2022-09-12T16:53:59;2.63;;;2.20;;
12042;SDS011;6082;49.306;12.862;2022-09-12T16:56:26;3.27;;;2.20;;
12042;SDS011;6082;49.306;12.862;2022-09-12T16:58:52;2.43;;;1.80;;
12042;SDS011;6082;49.306;12.862;2022-09-12T17:01:19;2.60;;;2.10;;
12042;SDS011;6082;49.306;12.862;2022-09-12T17:03:47;2.90;;;2.00;;
12042;SDS011;6082;49.306;12.862;2022-09-12T17:06:17;1.93;;;1.77;;
12042;SDS011;6082;49.306;12.862;2022-09-12T17:08:45;2.50;;;1.90;;
12042;SDS011;6082;49.306;12.862;2022-09-12T17:11:14;2.87;;;2.20;;
12042;SDS011;6082;49.306;12.862;2022-09-12T17:13:49;3.00;;;2.47;;
12042;SDS011;6082;49.306;12.862;2022-09-12T17:16:17;3.10;;;2.40;;
12042;SDS011;6082;49.306;12.862;2022-09-12T17:18:43;2.90;;;2.20;;
12042;SDS011;6082;49.306;12.862;2022-09-12T17:21:10;2.17;;;1.83;;
12042;SDS011;6082;49.306;12.862;2022-09-12T17:23:36;4.83;;;2.10;;
12042;SDS011;6082;49.306;12.862;2022-09-12T17:26:02;2.33;;;2.13;;
12042;SDS011;6082;49.306;12.862;2022-09-12T17:28:29;2.70;;;2.10;;
12042;SDS011;6082;49.306;12.862;2022-09-12T17:30:55;3.17;;;2.10;;
12042;SDS011;6082;49.306;12.862;2022-09-12T17:33:22;2.83;;;2.13;;
12042;SDS011;6082;49.306;12.862;2022-09-12T17:35:48;3.17;;;1.97;;
12042;SDS011;6082;49.306;12.862;2022-09-12T17:38:14;3.73;;;2.50;;
12042;SDS011;6082;49.306;12.862;2022-09-12T17:40:40;4.13;;;2.23;;
12042;SDS011;6082;49.306;12.862;2022-09-12T17:43:06;2.83;;;1.80;;
12042;SDS011;6082;49.306;12.862;2022-09-12T17:45:32;2.10;;;1.83;;
12042;SDS011;6082;49.306;12.862;2022-09-12T17:47:58;3.00;;;2.37;;
12042;SDS011;6082;49.306;12.862;2022-09-12T17:50:24;3.07;;;2.27;;
12042;SDS011;6082;49.306;12.862;2022-09-12T17:52:50;3.37;;;2.10;;
12042;SDS011;6082;49.306;12.862;2022-09-12T17:55:15;2.63;;;2.17;;
12042;SDS011;6082;49.306;12.862;2022-09-12T17:57:42;3.83;;;2.10;;
12042;SDS011;6082;49.306;12.862;2022-09-12T18:00:09;2.20;;;2.00;;
12042;SDS011;6082;49.306;12.862;2022-09-12T18:02:35;2.73;;;2.50;;